sensor_id;sensor_type;location;lat;lon;timestamp;temperature;humidity
71175;DHT22;58876;51.994;4.472;2022-10-16T00:01:46;15.55;70.61
71175;DHT22;58876;51.994;4.472;2022-10-16T00:04:12;15.66;70.78
71175;DHT22;58876;51.994;4.472;2022-10-16T00:06:37;15.55;70.86
71175;DHT22;58876;51.994;4.472;2022-10-16T00:09:05;15.50;70.75
71175;DHT22;58876;51.994;4.472;2022-10-16T00:11:34;15.56;70.70
71175;DHT22;58876;51.994;4.472;2022-10-16T00:14:04;15.53;70.73
71175;DHT22;58876;51.994;4.472;2022-10-16T00:16:30;15.47;70.60
71175;DHT22;58876;51.994;4.472;2022-10-16T00:18:58;15.55;70.60
71175;DHT22;58876;51.994;4.472;2022-10-16T00:21:26;15.56;70.11
71175;DHT22;58876;51.994;4.472;2022-10-16T00:23:54;15.66;70.05
71175;DHT22;58876;51.994;4.472;2022-10-16T00:26:20;15.69;70.08
71175;DHT22;58876;51.994;4.472;2022-10-16T00:28:47;15.59;70.86
71175;DHT22;58876;51.994;4.472;2022-10-16T00:31:13;15.66;70.55
71175;DHT22;58876;51.994;4.472;2022-10-16T00:33:40;15.71;70.19
71175;DHT22;58876;51.994;4.472;2022-10-16T00:36:08;15.69;70.31
71175;DHT22;58876;51.994;4.472;2022-10-16T00:38:34;15.82;70.36
71175;DHT22;58876;51.994;4.472;2022-10-16T00:41:00;15.74;70.52
71175;DHT22;58876;51.994;4.472;2022-10-16T00:46:27;15.70;71.36
71175;DHT22;58876;51.994;4.472;2022-10-16T00:49:11;15.62;72.14
71175;DHT22;58876;51.994;4.472;2022-10-16T00:51:41;15.47;72.54
71175;DHT22;58876;51.994;4.472;2022-10-16T00:54:11;15.62;72.60
71175;DHT22;58876;51.994;4.472;2022-10-16T00:56:37;15.46;73.38
71175;DHT22;58876;51.994;4.472;2022-10-16T00:59:16;15.24;74.30
71175;DHT22;58876;51.994;4.472;2022-10-16T01:01:43;15.29;74.48
71175;DHT22;58876;51.994;4.472;2022-10-16T01:04:08;15.26;74.77
71175;DHT22;58876;51.994;4.472;2022-10-16T01:12:53;15.06;76.57
71175;DHT22;58876;51.994;4.472;2022-10-16T01:15:34;14.94;77.18
71175;DHT22;58876;51.994;4.472;2022-10-16T01:20:48;14.84;77.77
71175;DHT22;58876;51.994;4.472;2022-10-16T01:26:02;14.81;78.35
71175;DHT22;58876;51.994;4.472;2022-10-16T01:28:40;14.80;78.43
71175;DHT22;58876;51.994;4.472;2022-10-16T01:31:10;14.71;78.70
71175;DHT22;58876;51.994;4.472;2022-10-16T01:33:43;14.65;78.92
71175;DHT22;58876;51.994;4.472;2022-10-16T01:36:19;14.48;79.27
71175;DHT22;58876;51.994;4.472;2022-10-16T01:38:51;14.51;79.29
71175;DHT22;58876;51.994;4.472;2022-10-16T01:41:26;14.56;78.93
71175;DHT22;58876;51.994;4.472;2022-10-16T01:46:36;14.56;78.94
71175;DHT22;58876;51.994;4.472;2022-10-16T01:49:03;14.46;79.32
71175;DHT22;58876;51.994;4.472;2022-10-16T01:51:29;14.44;79.38
71175;DHT22;58876;51.994;4.472;2022-10-16T01:53:59;14.63;79.01
71175;DHT22;58876;51.994;4.472;2022-10-16T01:56:27;14.67;78.41
71175;DHT22;58876;51.994;4.472;2022-10-16T01:59:00;14.56;79.17
71175;DHT22;58876;51.994;4.472;2022-10-16T02:01:30;14.48;79.35
71175;DHT22;58876;51.994;4.472;2022-10-16T02:04:12;14.64;79.19
71175;DHT22;58876;51.994;4.472;2022-10-16T02:06:38;14.73;78.63
71175;DHT22;58876;51.994;4.472;2022-10-16T02:09:04;14.68;78.68
71175;DHT22;58876;51.994;4.472;2022-10-16T02:11:29;14.67;78.78
71175;DHT22;58876;51.994;4.472;2022-10-16T02:13:59;14.61;78.94
71175;DHT22;58876;51.994;4.472;2022-10-16T02:16:38;14.65;78.82
71175;DHT22;58876;51.994;4.472;2022-10-16T02:19:06;14.70;78.56
71175;DHT22;58876;51.994;4.472;2022-10-16T02:22:00;14.63;78.68
71175;DHT22;58876;51.994;4.472;2022-10-16T02:24:43;14.74;78.56
71175;DHT22;58876;51.994;4.472;2022-10-16T02:30:16;14.71;78.64
71175;DHT22;58876;51.994;4.472;2022-10-16T02:32:45;14.75;78.44
71175;DHT22;58876;51.994;4.472;2022-10-16T02:35:13;14.80;78.08
71175;DHT22;58876;51.994;4.472;2022-10-16T02:37:41;14.75;78.52
71175;DHT22;58876;51.994;4.472;2022-10-16T02:40:07;14.67;78.48
71175;DHT22;58876;51.994;4.472;2022-10-16T02:42:36;14.68;78.89
71175;DHT22;58876;51.994;4.472;2022-10-16T02:45:03;14.83;78.41
71175;DHT22;58876;51.994;4.472;2022-10-16T02:47:28;14.77;78.17
71175;DHT22;58876;51.994;4.472;2022-10-16T02:49:55;14.75;78.75
71175;DHT22;58876;51.994;4.472;2022-10-16T02:52:20;14.83;78.34
71175;DHT22;58876;51.994;4.472;2022-10-16T02:54:46;14.64;78.97
71175;DHT22;58876;51.994;4.472;2022-10-16T02:57:11;14.56;79.25
71175;DHT22;58876;51.994;4.472;2022-10-16T02:59:37;14.59;79.35
71175;DHT22;58876;51.994;4.472;2022-10-16T03:02:03;14.65;79.20
71175;DHT22;58876;51.994;4.472;2022-10-16T03:04:28;14.59;79.38
71175;DHT22;58876;51.994;4.472;2022-10-16T03:06:53;14.63;79.33
71175;DHT22;58876;51.994;4.472;2022-10-16T03:09:20;14.64;79.32
71175;DHT22;58876;51.994;4.472;2022-10-16T03:11:45;14.61;79.41
71175;DHT22;58876;51.994;4.472;2022-10-16T03:14:11;14.57;79.78
71175;DHT22;58876;51.994;4.472;2022-10-16T03:16:36;14.56;79.95
71175;DHT22;58876;51.994;4.472;2022-10-16T03:19:03;14.64;79.63
71175;DHT22;58876;51.994;4.472;2022-10-16T03:21:28;14.67;79.71
71175;DHT22;58876;51.994;4.472;2022-10-16T03:23:53;14.80;79.25
71175;DHT22;58876;51.994;4.472;2022-10-16T03:26:19;14.78;79.30
71175;DHT22;58876;51.994;4.472;2022-10-16T03:28:44;14.64;79.72
71175;DHT22;58876;51.994;4.472;2022-10-16T03:31:10;14.65;79.50
71175;DHT22;58876;51.994;4.472;2022-10-16T03:33:35;14.78;79.25
71175;DHT22;58876;51.994;4.472;2022-10-16T03:36:00;14.68;79.08
71175;DHT22;58876;51.994;4.472;2022-10-16T03:38:26;14.77;78.90
71175;DHT22;58876;51.994;4.472;2022-10-16T03:40:52;14.77;78.70
71175;DHT22;58876;51.994;4.472;2022-10-16T03:43:18;14.73;78.58
71175;DHT22;58876;51.994;4.472;2022-10-16T03:45:43;14.80;78.56
71175;DHT22;58876;51.994;4.472;2022-10-16T03:48:09;14.91;78.24
71175;DHT22;58876;51.994;4.472;2022-10-16T03:50:34;14.83;78.45
71175;DHT22;58876;51.994;4.472;2022-10-16T03:52:59;14.91;78.25
71175;DHT22;58876;51.994;4.472;2022-10-16T03:55:25;14.73;78.80
71175;DHT22;58876;51.994;4.472;2022-10-16T03:57:50;14.78;78.76
71175;DHT22;58876;51.994;4.472;2022-10-16T04:00:16;14.85;78.76
71175;DHT22;58876;51.994;4.472;2022-10-16T04:02:42;14.84;78.70
71175;DHT22;58876;51.994;4.472;2022-10-16T04:05:07;14.78;78.96
71175;DHT22;58876;51.994;4.472;2022-10-16T04:07:33;14.80;79.03
71175;DHT22;58876;51.994;4.472;2022-10-16T04:09:58;14.87;79.04
71175;DHT22;58876;51.994;4.472;2022-10-16T04:12:25;14.84;79.06
71175;DHT22;58876;51.994;4.472;2022-10-16T04:14:50;14.74;79.43
71175;DHT22;58876;51.994;4.472;2022-10-16T04:17:16;14.63;79.95
71175;DHT22;58876;51.994;4.472;2022-10-16T04:19:41;14.71;79.79
71175;DHT22;58876;51.994;4.472;2022-10-16T04:22:07;14.70;79.83
71175;DHT22;58876;51.994;4.472;2022-10-16T04:24:32;14.68;80.12
71175;DHT22;58876;51.994;4.472;2022-10-16T04:26:58;14.51;80.77
71175;DHT22;58876;51.994;4.472;2022-10-16T04:29:23;14.61;80.41
71175;DHT22;58876;51.994;4.472;2022-10-16T04:31:49;14.54;80.63
71175;DHT22;58876;51.994;4.472;2022-10-16T04:34:14;14.54;81.05
71175;DHT22;58876;51.994;4.472;2022-10-16T04:36:40;14.64;80.72
71175;DHT22;58876;51.994;4.472;2022-10-16T04:39:05;14.50;81.32
71175;DHT22;58876;51.994;4.472;2022-10-16T04:41:30;14.59;80.92
71175;DHT22;58876;51.994;4.472;2022-10-16T04:43:56;14.64;80.75
71175;DHT22;58876;51.994;4.472;2022-10-16T04:46:21;14.57;81.06
71175;DHT22;58876;51.994;4.472;2022-10-16T04:48:49;14.71;80.44
71175;DHT22;58876;51.994;4.472;2022-10-16T04:51:14;14.71;80.39
71175;DHT22;58876;51.994;4.472;2022-10-16T04:53:40;14.70;80.52
71175;DHT22;58876;51.994;4.472;2022-10-16T04:56:05;14.64;80.91
71175;DHT22;58876;51.994;4.472;2022-10-16T04:58:31;14.74;80.78
71175;DHT22;58876;51.994;4.472;2022-10-16T05:00:56;14.81;80.31
71175;DHT22;58876;51.994;4.472;2022-10-16T05:03:22;14.67;80.66
71175;DHT22;58876;51.994;4.472;2022-10-16T05:05:47;14.70;80.74
71175;DHT22;58876;51.994;4.472;2022-10-16T05:08:14;14.68;80.56
71175;DHT22;58876;51.994;4.472;2022-10-16T05:10:42;14.70;80.73
71175;DHT22;58876;51.994;4.472;2022-10-16T05:13:08;14.84;80.46
71175;DHT22;58876;51.994;4.472;2022-10-16T05:15:33;14.94;80.04
71175;DHT22;58876;51.994;4.472;2022-10-16T05:17:59;14.89;80.58
71175;DHT22;58876;51.994;4.472;2022-10-16T05:20:24;14.84;80.72
71175;DHT22;58876;51.994;4.472;2022-10-16T05:22:50;14.80;81.29
71175;DHT22;58876;51.994;4.472;2022-10-16T05:25:15;14.68;82.18
71175;DHT22;58876;51.994;4.472;2022-10-16T05:27:41;14.50;82.68
71175;DHT22;58876;51.994;4.472;2022-10-16T05:30:08;14.53;83.59
71175;DHT22;58876;51.994;4.472;2022-10-16T05:32:33;14.38;83.67
71175;DHT22;58876;51.994;4.472;2022-10-16T05:34:59;14.43;83.88
71175;DHT22;58876;51.994;4.472;2022-10-16T05:37:26;14.38;83.76
71175;DHT22;58876;51.994;4.472;2022-10-16T05:39:52;14.27;84.45
71175;DHT22;58876;51.994;4.472;2022-10-16T05:42:18;14.32;84.30
71175;DHT22;58876;51.994;4.472;2022-10-16T05:44:44;14.23;84.21
71175;DHT22;58876;51.994;4.472;2022-10-16T05:47:09;14.17;84.23
71175;DHT22;58876;51.994;4.472;2022-10-16T05:49:37;14.32;84.29
71175;DHT22;58876;51.994;4.472;2022-10-16T05:52:03;14.25;84.17
71175;DHT22;58876;51.994;4.472;2022-10-16T05:54:28;14.26;83.91
71175;DHT22;58876;51.994;4.472;2022-10-16T05:56:54;14.27;83.59
71175;DHT22;58876;51.994;4.472;2022-10-16T05:59:19;14.34;83.31
71175;DHT22;58876;51.994;4.472;2022-10-16T06:01:45;14.27;83.04
71175;DHT22;58876;51.994;4.472;2022-10-16T06:04:10;14.27;82.84
71175;DHT22;58876;51.994;4.472;2022-10-16T06:06:35;14.32;82.39
71175;DHT22;58876;51.994;4.472;2022-10-16T06:09:03;14.47;82.47
71175;DHT22;58876;51.994;4.472;2022-10-16T06:11:30;14.40;82.24
71175;DHT22;58876;51.994;4.472;2022-10-16T06:13:58;14.34;82.20
71175;DHT22;58876;51.994;4.472;2022-10-16T06:16:26;14.44;82.34
71175;DHT22;58876;51.994;4.472;2022-10-16T06:18:52;14.44;82.04
71175;DHT22;58876;51.994;4.472;2022-10-16T06:21:21;14.46;81.56
71175;DHT22;58876;51.994;4.472;2022-10-16T06:23:47;14.48;81.06
71175;DHT22;58876;51.994;4.472;2022-10-16T06:26:16;14.43;80.58
71175;DHT22;58876;51.994;4.472;2022-10-16T06:28:42;14.48;80.08
71175;DHT22;58876;51.994;4.472;2022-10-16T06:31:09;14.59;79.25
71175;DHT22;58876;51.994;4.472;2022-10-16T06:33:36;14.38;78.81
71175;DHT22;58876;51.994;4.472;2022-10-16T06:36:10;14.53;78.78
71175;DHT22;58876;51.994;4.472;2022-10-16T06:38:37;14.51;78.48
71175;DHT22;58876;51.994;4.472;2022-10-16T06:41:03;14.46;79.47
71175;DHT22;58876;51.994;4.472;2022-10-16T06:43:29;14.46;80.35
71175;DHT22;58876;51.994;4.472;2022-10-16T06:46:02;14.41;80.99
71175;DHT22;58876;51.994;4.472;2022-10-16T06:48:29;14.44;81.38
71175;DHT22;58876;51.994;4.472;2022-10-16T06:51:06;14.36;82.02
71175;DHT22;58876;51.994;4.472;2022-10-16T06:53:35;14.38;82.00
71175;DHT22;58876;51.994;4.472;2022-10-16T06:56:11;14.37;82.08
71175;DHT22;58876;51.994;4.472;2022-10-16T06:58:37;14.48;81.70
71175;DHT22;58876;51.994;4.472;2022-10-16T07:01:03;14.46;81.45
71175;DHT22;58876;51.994;4.472;2022-10-16T07:03:28;14.51;81.47
71175;DHT22;58876;51.994;4.472;2022-10-16T07:05:54;14.44;81.29
71175;DHT22;58876;51.994;4.472;2022-10-16T07:08:19;14.50;81.33
71175;DHT22;58876;51.994;4.472;2022-10-16T07:10:45;14.47;81.68
71175;DHT22;58876;51.994;4.472;2022-10-16T07:13:10;14.85;80.54
71175;DHT22;58876;51.994;4.472;2022-10-16T07:15:39;15.02;79.61
71175;DHT22;58876;51.994;4.472;2022-10-16T07:18:04;14.85;80.39
71175;DHT22;58876;51.994;4.472;2022-10-16T07:20:29;15.43;78.83
71175;DHT22;58876;51.994;4.472;2022-10-16T07:22:55;15.55;77.83
71175;DHT22;58876;51.994;4.472;2022-10-16T07:25:20;16.11;75.69
71175;DHT22;58876;51.994;4.472;2022-10-16T07:27:46;16.61;74.47
71175;DHT22;58876;51.994;4.472;2022-10-16T07:30:12;16.45;74.45
71175;DHT22;58876;51.994;4.472;2022-10-16T07:32:38;16.72;73.71
71175;DHT22;58876;51.994;4.472;2022-10-16T07:35:04;16.59;74.15
71175;DHT22;58876;51.994;4.472;2022-10-16T07:37:29;16.49;74.44
71175;DHT22;58876;51.994;4.472;2022-10-16T07:39:55;16.56;73.75
71175;DHT22;58876;51.994;4.472;2022-10-16T07:42:20;16.55;74.44
71175;DHT22;58876;51.994;4.472;2022-10-16T07:44:45;16.40;74.59
71175;DHT22;58876;51.994;4.472;2022-10-16T07:47:11;16.35;75.23
71175;DHT22;58876;51.994;4.472;2022-10-16T07:49:37;16.45;75.02
71175;DHT22;58876;51.994;4.472;2022-10-16T07:52:03;16.13;75.43
71175;DHT22;58876;51.994;4.472;2022-10-16T07:54:28;16.05;76.01
71175;DHT22;58876;51.994;4.472;2022-10-16T07:56:54;15.73;76.94
71175;DHT22;58876;51.994;4.472;2022-10-16T07:59:20;15.76;77.51
71175;DHT22;58876;51.994;4.472;2022-10-16T08:01:45;15.57;77.45
71175;DHT22;58876;51.994;4.472;2022-10-16T08:04:10;15.59;77.89
71175;DHT22;58876;51.994;4.472;2022-10-16T08:06:38;15.62;78.35
71175;DHT22;58876;51.994;4.472;2022-10-16T08:09:04;15.62;77.75
71175;DHT22;58876;51.994;4.472;2022-10-16T08:11:29;15.52;78.06
71175;DHT22;58876;51.994;4.472;2022-10-16T08:13:55;15.64;77.56
71175;DHT22;58876;51.994;4.472;2022-10-16T08:16:20;15.69;77.72
71175;DHT22;58876;51.994;4.472;2022-10-16T08:18:46;15.83;76.92
71175;DHT22;58876;51.994;4.472;2022-10-16T08:21:20;15.83;77.12
71175;DHT22;58876;51.994;4.472;2022-10-16T08:23:46;15.91;76.98
71175;DHT22;58876;51.994;4.472;2022-10-16T08:26:12;16.00;76.93
71175;DHT22;58876;51.994;4.472;2022-10-16T08:28:38;16.04;76.76
71175;DHT22;58876;51.994;4.472;2022-10-16T08:31:10;16.25;76.20
71175;DHT22;58876;51.994;4.472;2022-10-16T08:33:36;16.31;75.67
71175;DHT22;58876;51.994;4.472;2022-10-16T08:36:04;16.11;76.47
71175;DHT22;58876;51.994;4.472;2022-10-16T08:38:29;16.36;75.75
71175;DHT22;58876;51.994;4.472;2022-10-16T08:47:05;16.42;75.78
71175;DHT22;58876;51.994;4.472;2022-10-16T08:49:41;16.51;75.73
71175;DHT22;58876;51.994;4.472;2022-10-16T08:52:12;16.40;75.59
71175;DHT22;58876;51.994;4.472;2022-10-16T08:54:45;16.58;75.84
71175;DHT22;58876;51.994;4.472;2022-10-16T08:57:23;16.65;75.19
71175;DHT22;58876;51.994;4.472;2022-10-16T08:59:50;16.59;75.39
71175;DHT22;58876;51.994;4.472;2022-10-16T09:02:36;16.71;75.51
71175;DHT22;58876;51.994;4.472;2022-10-16T09:05:21;16.79;74.88
71175;DHT22;58876;51.994;4.472;2022-10-16T09:08:01;16.99;74.11
71175;DHT22;58876;51.994;4.472;2022-10-16T09:10:53;16.84;74.22
71175;DHT22;58876;51.994;4.472;2022-10-16T09:16:10;16.80;75.37
71175;DHT22;58876;51.994;4.472;2022-10-16T09:21:30;16.92;73.59
71175;DHT22;58876;51.994;4.472;2022-10-16T09:24:12;17.00;73.98
71175;DHT22;58876;51.994;4.472;2022-10-16T09:26:38;16.96;73.18
71175;DHT22;58876;51.994;4.472;2022-10-16T09:29:04;16.97;73.30
71175;DHT22;58876;51.994;4.472;2022-10-16T09:31:29;17.30;72.65
71175;DHT22;58876;51.994;4.472;2022-10-16T09:33:59;17.19;71.97
71175;DHT22;58876;51.994;4.472;2022-10-16T09:36:27;16.82;72.49
71175;DHT22;58876;51.994;4.472;2022-10-16T09:39:08;16.86;74.17
71175;DHT22;58876;51.994;4.472;2022-10-16T09:41:37;17.28;73.13
71175;DHT22;58876;51.994;4.472;2022-10-16T09:44:06;17.61;71.09
71175;DHT22;58876;51.994;4.472;2022-10-16T09:46:39;17.06;71.40
71175;DHT22;58876;51.994;4.472;2022-10-16T09:49:22;17.00;71.91
71175;DHT22;58876;51.994;4.472;2022-10-16T09:51:49;17.03;72.02
71175;DHT22;58876;51.994;4.472;2022-10-16T09:54:21;17.33;71.39
71175;DHT22;58876;51.994;4.472;2022-10-16T09:56:48;17.61;70.25
71175;DHT22;58876;51.994;4.472;2022-10-16T09:59:23;17.65;69.65
71175;DHT22;58876;51.994;4.472;2022-10-16T10:01:56;17.44;70.86
71175;DHT22;58876;51.994;4.472;2022-10-16T10:04:48;17.71;70.33
71175;DHT22;58876;51.994;4.472;2022-10-16T10:07:27;17.75;69.81
71175;DHT22;58876;51.994;4.472;2022-10-16T10:09:56;17.85;67.47
71175;DHT22;58876;51.994;4.472;2022-10-16T10:12:26;17.85;67.52
71175;DHT22;58876;51.994;4.472;2022-10-16T10:14:56;17.48;69.07
71175;DHT22;58876;51.994;4.472;2022-10-16T10:17:27;17.71;67.41
71175;DHT22;58876;51.994;4.472;2022-10-16T10:20:18;17.65;68.14
71175;DHT22;58876;51.994;4.472;2022-10-16T10:22:46;17.85;67.65
71175;DHT22;58876;51.994;4.472;2022-10-16T10:33:43;17.89;67.38
71175;DHT22;58876;51.994;4.472;2022-10-16T10:39:04;18.03;66.62
71175;DHT22;58876;51.994;4.472;2022-10-16T10:41:54;18.68;65.33
71175;DHT22;58876;51.994;4.472;2022-10-16T10:44:44;19.26;63.61
71175;DHT22;58876;51.994;4.472;2022-10-16T10:47:31;18.78;63.05
71175;DHT22;58876;51.994;4.472;2022-10-16T10:52:51;18.84;63.13
71175;DHT22;58876;51.994;4.472;2022-10-16T11:01:01;18.30;64.63
71175;DHT22;58876;51.994;4.472;2022-10-16T11:03:35;18.37;64.56
71175;DHT22;58876;51.994;4.472;2022-10-16T11:06:22;18.61;62.44
71175;DHT22;58876;51.994;4.472;2022-10-16T11:11:38;18.43;62.67
71175;DHT22;58876;51.994;4.472;2022-10-16T11:16:48;18.98;60.35
71175;DHT22;58876;51.994;4.472;2022-10-16T11:19:28;18.78;61.27
71175;DHT22;58876;51.994;4.472;2022-10-16T11:25:18;18.50;59.43
71175;DHT22;58876;51.994;4.472;2022-10-16T11:28:10;18.47;60.04
71175;DHT22;58876;51.994;4.472;2022-10-16T11:31:00;18.47;59.40
71175;DHT22;58876;51.994;4.472;2022-10-16T11:35:54;19.09;59.11
71175;DHT22;58876;51.994;4.472;2022-10-16T11:41:21;18.70;59.20
71175;DHT22;58876;51.994;4.472;2022-10-16T11:46:33;18.84;58.38
71175;DHT22;58876;51.994;4.472;2022-10-16T11:49:11;18.81;55.45
71175;DHT22;58876;51.994;4.472;2022-10-16T11:51:48;18.72;56.47
71175;DHT22;58876;51.994;4.472;2022-10-16T11:54:35;18.50;58.71
71175;DHT22;58876;51.994;4.472;2022-10-16T11:57:21;18.37;57.27
71175;DHT22;58876;51.994;4.472;2022-10-16T12:00:07;18.32;57.97
71175;DHT22;58876;51.994;4.472;2022-10-16T12:03:12;18.44;57.34
71175;DHT22;58876;51.994;4.472;2022-10-16T12:06:02;18.74;54.91
71175;DHT22;58876;51.994;4.472;2022-10-16T12:08:34;18.94;55.33
71175;DHT22;58876;51.994;4.472;2022-10-16T12:11:31;18.46;56.07
71175;DHT22;58876;51.994;4.472;2022-10-16T12:14:33;18.19;56.27
71175;DHT22;58876;51.994;4.472;2022-10-16T12:19:58;18.26;56.18
71175;DHT22;58876;51.994;4.472;2022-10-16T12:22:29;18.28;56.88
71175;DHT22;58876;51.994;4.472;2022-10-16T12:24:56;18.57;57.10
71175;DHT22;58876;51.994;4.472;2022-10-16T12:29:57;18.34;56.77
71175;DHT22;58876;51.994;4.472;2022-10-16T12:32:30;18.44;57.88
71175;DHT22;58876;51.994;4.472;2022-10-16T12:34:58;18.71;57.00
71175;DHT22;58876;51.994;4.472;2022-10-16T12:37:28;18.77;57.11
71175;DHT22;58876;51.994;4.472;2022-10-16T12:40:29;18.97;56.02
71175;DHT22;58876;51.994;4.472;2022-10-16T12:42:55;18.68;54.76
71175;DHT22;58876;51.994;4.472;2022-10-16T12:45:30;18.99;56.10
71175;DHT22;58876;51.994;4.472;2022-10-16T12:47:57;19.33;53.24
71175;DHT22;58876;51.994;4.472;2022-10-16T12:50:29;19.07;52.91
71175;DHT22;58876;51.994;4.472;2022-10-16T12:52:56;19.23;52.94
71175;DHT22;58876;51.994;4.472;2022-10-16T12:55:23;18.95;52.66
71175;DHT22;58876;51.994;4.472;2022-10-16T12:58:14;18.95;52.07
71175;DHT22;58876;51.994;4.472;2022-10-16T13:00:48;18.75;53.79
71175;DHT22;58876;51.994;4.472;2022-10-16T13:03:54;19.12;52.87
71175;DHT22;58876;51.994;4.472;2022-10-16T13:06:48;19.01;54.90
71175;DHT22;58876;51.994;4.472;2022-10-16T13:12:46;19.26;54.85
71175;DHT22;58876;51.994;4.472;2022-10-16T13:15:37;19.55;53.50
71175;DHT22;58876;51.994;4.472;2022-10-16T13:18:19;19.46;53.26
71175;DHT22;58876;51.994;4.472;2022-10-16T13:24:02;19.14;53.55
71175;DHT22;58876;51.994;4.472;2022-10-16T13:26:49;19.19;53.37
71175;DHT22;58876;51.994;4.472;2022-10-16T13:29:19;19.18;53.49
71175;DHT22;58876;51.994;4.472;2022-10-16T13:31:45;19.18;52.90
71175;DHT22;58876;51.994;4.472;2022-10-16T13:34:20;19.25;52.60
71175;DHT22;58876;51.994;4.472;2022-10-16T13:36:49;19.28;54.08
71175;DHT22;58876;51.994;4.472;2022-10-16T13:39:26;19.55;53.93
71175;DHT22;58876;51.994;4.472;2022-10-16T13:42:10;19.18;53.61
71175;DHT22;58876;51.994;4.472;2022-10-16T13:44:47;18.80;55.12
71175;DHT22;58876;51.994;4.472;2022-10-16T13:47:16;18.91;55.22
71175;DHT22;58876;51.994;4.472;2022-10-16T13:49:42;18.85;55.89
71175;DHT22;58876;51.994;4.472;2022-10-16T13:52:18;18.68;57.63
71175;DHT22;58876;51.994;4.472;2022-10-16T13:54:44;18.91;57.19
71175;DHT22;58876;51.994;4.472;2022-10-16T13:57:14;19.01;56.58
71175;DHT22;58876;51.994;4.472;2022-10-16T13:59:39;18.99;56.33
71175;DHT22;58876;51.994;4.472;2022-10-16T14:02:22;18.95;56.89
71175;DHT22;58876;51.994;4.472;2022-10-16T14:04:50;19.05;57.79
71175;DHT22;58876;51.994;4.472;2022-10-16T14:07:24;19.11;59.40
71175;DHT22;58876;51.994;4.472;2022-10-16T14:09:52;19.28;59.57
71175;DHT22;58876;51.994;4.472;2022-10-16T14:12:18;19.26;59.52
71175;DHT22;58876;51.994;4.472;2022-10-16T14:14:47;19.40;59.75
71175;DHT22;58876;51.994;4.472;2022-10-16T14:17:18;19.56;59.84
71175;DHT22;58876;51.994;4.472;2022-10-16T14:19:50;19.45;59.02
71175;DHT22;58876;51.994;4.472;2022-10-16T14:22:37;19.25;60.79
71175;DHT22;58876;51.994;4.472;2022-10-16T14:27:45;19.09;59.69
71175;DHT22;58876;51.994;4.472;2022-10-16T14:32:41;18.85;59.54
71175;DHT22;58876;51.994;4.472;2022-10-16T14:35:35;18.85;61.27
71175;DHT22;58876;51.994;4.472;2022-10-16T14:38:04;19.23;60.58
71175;DHT22;58876;51.994;4.472;2022-10-16T14:40:33;19.39;58.22
71175;DHT22;58876;51.994;4.472;2022-10-16T14:43:00;19.35;58.00
71175;DHT22;58876;51.994;4.472;2022-10-16T14:45:30;19.25;58.13
71175;DHT22;58876;51.994;4.472;2022-10-16T14:48:16;19.11;59.57
71175;DHT22;58876;51.994;4.472;2022-10-16T14:50:42;19.16;59.12
71175;DHT22;58876;51.994;4.472;2022-10-16T14:53:11;19.09;58.16
71175;DHT22;58876;51.994;4.472;2022-10-16T14:55:38;19.04;59.29
71175;DHT22;58876;51.994;4.472;2022-10-16T14:58:04;19.22;58.32
71175;DHT22;58876;51.994;4.472;2022-10-16T15:00:29;19.19;57.98
71175;DHT22;58876;51.994;4.472;2022-10-16T15:02:55;19.12;58.05
71175;DHT22;58876;51.994;4.472;2022-10-16T15:05:25;19.04;58.53
71175;DHT22;58876;51.994;4.472;2022-10-16T15:07:53;19.07;60.42
71175;DHT22;58876;51.994;4.472;2022-10-16T15:10:22;19.11;60.26
71175;DHT22;58876;51.994;4.472;2022-10-16T15:12:48;19.14;59.86
71175;DHT22;58876;51.994;4.472;2022-10-16T15:17:48;19.20;59.26
71175;DHT22;58876;51.994;4.472;2022-10-16T15:20:14;19.25;60.10
71175;DHT22;58876;51.994;4.472;2022-10-16T15:22:39;19.26;59.85
71175;DHT22;58876;51.994;4.472;2022-10-16T15:25:32;19.32;60.02
71175;DHT22;58876;51.994;4.472;2022-10-16T15:28:00;19.28;59.92
71175;DHT22;58876;51.994;4.472;2022-10-16T15:30:26;19.35;59.56
71175;DHT22;58876;51.994;4.472;2022-10-16T15:32:52;19.36;58.84
71175;DHT22;58876;51.994;4.472;2022-10-16T15:35:18;19.30;59.51
71175;DHT22;58876;51.994;4.472;2022-10-16T15:37:43;19.23;60.48
71175;DHT22;58876;51.994;4.472;2022-10-16T15:40:10;19.23;61.41
71175;DHT22;58876;51.994;4.472;2022-10-16T15:42:36;19.22;61.32
71175;DHT22;58876;51.994;4.472;2022-10-16T15:45:01;19.23;61.30
71175;DHT22;58876;51.994;4.472;2022-10-16T15:47:27;19.19;61.43
71175;DHT22;58876;51.994;4.472;2022-10-16T15:49:52;19.20;61.44
71175;DHT22;58876;51.994;4.472;2022-10-16T15:52:17;19.25;60.48
71175;DHT22;58876;51.994;4.472;2022-10-16T15:54:43;19.18;60.98
71175;DHT22;58876;51.994;4.472;2022-10-16T15:57:09;19.09;60.89
71175;DHT22;58876;51.994;4.472;2022-10-16T15:59:34;19.02;61.66
71175;DHT22;58876;51.994;4.472;2022-10-16T16:01:59;18.94;62.14
71175;DHT22;58876;51.994;4.472;2022-10-16T16:04:25;18.88;62.46
71175;DHT22;58876;51.994;4.472;2022-10-16T16:06:50;18.84;62.55
71175;DHT22;58876;51.994;4.472;2022-10-16T16:09:16;18.84;62.10
71175;DHT22;58876;51.994;4.472;2022-10-16T16:11:41;18.75;63.11
71175;DHT22;58876;51.994;4.472;2022-10-16T16:14:12;18.77;64.09
71175;DHT22;58876;51.994;4.472;2022-10-16T16:16:38;18.72;64.39
71175;DHT22;58876;51.994;4.472;2022-10-16T16:19:04;18.68;64.13
71175;DHT22;58876;51.994;4.472;2022-10-16T16:21:32;18.65;64.25
71175;DHT22;58876;51.994;4.472;2022-10-16T16:23:58;18.60;64.60
71175;DHT22;58876;51.994;4.472;2022-10-16T16:26:26;18.53;65.01
71175;DHT22;58876;51.994;4.472;2022-10-16T16:28:54;18.46;64.96
71175;DHT22;58876;51.994;4.472;2022-10-16T16:31:24;18.41;65.32
71175;DHT22;58876;51.994;4.472;2022-10-16T16:33:49;18.39;65.29
71175;DHT22;58876;51.994;4.472;2022-10-16T16:36:17;18.34;65.96
71175;DHT22;58876;51.994;4.472;2022-10-16T16:38:44;18.32;65.29
71175;DHT22;58876;51.994;4.472;2022-10-16T16:41:25;18.28;66.02
71175;DHT22;58876;51.994;4.472;2022-10-16T16:43:51;18.22;65.87
71175;DHT22;58876;51.994;4.472;2022-10-16T16:46:18;18.16;65.89
71175;DHT22;58876;51.994;4.472;2022-10-16T16:48:44;18.16;66.29
71175;DHT22;58876;51.994;4.472;2022-10-16T16:51:13;18.16;66.45
71175;DHT22;58876;51.994;4.472;2022-10-16T16:53:42;18.16;65.85
71175;DHT22;58876;51.994;4.472;2022-10-16T16:56:08;18.10;66.16
71175;DHT22;58876;51.994;4.472;2022-10-16T16:58:34;18.08;66.55
71175;DHT22;58876;51.994;4.472;2022-10-16T17:00:59;18.06;66.60
71175;DHT22;58876;51.994;4.472;2022-10-16T17:03:32;18.02;67.08
71175;DHT22;58876;51.994;4.472;2022-10-16T17:08:29;17.95;66.96
71175;DHT22;58876;51.994;4.472;2022-10-16T17:10:55;17.96;66.98
71175;DHT22;58876;51.994;4.472;2022-10-16T17:13:27;17.88;67.38
71175;DHT22;58876;51.994;4.472;2022-10-16T17:15:53;17.85;67.49
71175;DHT22;58876;51.994;4.472;2022-10-16T17:18:21;17.79;67.32